AST,Max TemperatureF,Mean TemperatureF,Min TemperatureF,Max Dew PointF,MeanDew PointF,Min DewpointF,Max Humidity, Mean Humidity, Min Humidity, Max Sea Level PressureIn, Mean Sea Level PressureIn, Min Sea Level PressureIn, Max VisibilityMiles, Mean VisibilityMiles, Min VisibilityMiles, Max Wind SpeedMPH, Mean Wind SpeedMPH, Max Gust SpeedMPH,PrecipitationIn, CloudCover, Events, WindDirDegrees
2012-10-1,89,84,78,77,76,72,91,77,63,30.01,29.97,29.94,10,9,1,18,9,23,0.42,2,Rain,109
2012-10-2,92,86,79,76,74,72,85,69,52,30.04,30.00,29.96,10,10,10,22,12,31,0.00,2,,98
2012-10-3,91,86,81,75,73,70,79,68,56,30.06,30.01,29.97,10,10,10,17,13,30,T,2,,83
2012-10-4,91,85,79,75,73,70,79,66,52,30.01,29.95,29.91,10,10,10,23,10,28,0.01,2,,74
2012-10-5,91,85,79,74,72,70,85,69,52,29.91,29.86,29.81,10,10,10,17,6,29,T,1,,54
2012-10-6,87,81,75,75,73,71,88,77,65,29.86,29.82,29.77,10,10,10,8,3,14,0.00,0,,181
2012-10-7,89,85,81,75,74,73,79,71,63,29.98,29.91,29.83,10,10,10,14,8,16,T,1,,146
2012-10-8,89,83,77,79,76,75,91,80,68,30.02,29.98,29.94,10,9,1,28,8,31,0.26,2,Rain,107
2012-10-9,88,83,77,79,76,73,91,80,68,30.01,29.97,29.92,10,9,2,16,6,18,0.27,3,Rain,104
2012-10-10,90,84,78,76,75,72,91,77,63,29.98,29.93,29.88,10,10,10,17,9,23,0.01,1,,105
2012-10-11,90,85,79,76,74,69,85,71,56,29.95,29.90,29.87,10,10,10,28,10,37,T,1,,103
2012-10-12,89,83,77,79,75,72,91,77,63,29.91,29.87,29.82,10,9,2,23,12,29,0.37,2,Rain,95
2012-10-13,89,85,80,77,76,74,91,77,63,29.83,29.75,29.70,10,10,10,17,8,22,0.01,4,Rain,61
2012-10-14,87,83,79,79,78,76,94,86,77,29.74,29.70,29.66,10,9,2,21,11,25,0.17,5,Rain,297
2012-10-15,88,85,82,81,78,77,88,82,75,29.78,29.72,29.67,10,10,10,21,15,25,0.00,4,,240
2012-10-16,86,83,80,80,78,75,88,82,75,29.87,29.80,29.73,10,10,2,25,11,30,0.14,4,Rain,216
2012-10-17,88,82,76,79,78,75,97,86,75,29.94,29.89,29.84,10,9,1,18,5,23,1.01,4,Rain,180
2012-10-18,86,82,78,79,76,74,100,85,70,29.94,29.90,29.86,10,10,9,17,8,22,0.07,2,Rain,119
2012-10-19,86,81,76,77,75,73,100,83,65,29.96,29.90,29.85,10,8,1,28,10,36,0.46,4,Rain,119
2012-10-20,87,82,77,77,73,72,85,73,61,29.94,29.89,29.86,10,10,9,16,9,22,T,0,Rain,107
2012-10-21,86,82,77,79,75,73,94,82,70,29.92,29.87,29.82,10,7,1,23,5,33,1.32,5,Rain,98
2012-10-22,86,81,76,76,75,73,94,82,70,29.88,29.84,29.80,10,10,10,15,8,18,T,1,Rain,114
2012-10-23,87,82,76,75,73,70,88,73,57,29.88,29.84,29.78,10,10,10,16,8,20,T,2,Rain,103
2012-10-24,86,82,77,74,73,71,85,75,65,29.89,29.86,29.82,10,10,10,15,11,21,0.00,0,,123
2012-10-25,86,84,82,77,75,74,85,75,65,29.89,29.85,29.81,10,10,10,20,14,26,T,2,,137
2012-10-26,86,84,82,79,78,76,88,84,79,29.88,29.84,29.81,10,10,6,20,13,23,0.02,4,Rain,148
2012-10-27,86,84,82,81,79,78,88,83,77,29.85,29.81,29.78,10,10,10,16,13,22,T,4,Rain,197
2012-10-28,87,85,83,81,79,78,88,83,77,29.85,29.82,29.78,10,10,10,20,12,23,0.00,3,,221
2012-10-29,87,85,82,79,78,77,88,82,75,29.92,29.87,29.82,10,10,10,13,7,15,0.00,3,,208
2012-10-30,87,84,80,79,78,76,91,83,74,29.99,29.93,29.88,10,10,10,12,7,15,0.00,1,,148
2012-10-31,88,83,78,77,76,73,91,80,68,30.00,29.95,29.90,10,10,3,13,5,15,0.08,2,Rain,106